createdAt,value
2019-02-17T00:00:46.866Z,5.00
2019-02-17T00:03:16.789Z,4.90
2019-02-17T00:05:46.842Z,4.90
2019-02-17T00:08:16.915Z,4.90
2019-02-17T00:10:47.118Z,4.90
2019-02-17T00:13:19.433Z,4.90
2019-02-17T00:15:50.471Z,4.90
2019-02-17T00:18:20.586Z,4.90
2019-02-17T00:20:50.600Z,4.90
2019-02-17T00:23:20.418Z,4.90
2019-02-17T00:25:50.439Z,4.90
2019-02-17T00:28:20.343Z,5.00
2019-02-17T00:30:50.164Z,5.10
2019-02-17T00:33:19.982Z,5.10
2019-02-17T00:36:08.697Z,5.10
2019-02-17T00:38:38.713Z,5.00
2019-02-17T00:41:08.753Z,4.90
2019-02-17T00:43:38.565Z,4.90
2019-02-17T00:46:08.498Z,4.80
2019-02-17T00:48:38.492Z,4.80
2019-02-17T00:51:08.324Z,4.70
2019-02-17T00:53:38.297Z,4.70
2019-02-17T00:56:08.253Z,4.70
2019-02-17T00:58:38.137Z,4.70
2019-02-17T01:01:07.969Z,4.70
2019-02-17T01:03:37.954Z,4.80
2019-02-17T01:06:07.929Z,4.80
2019-02-17T01:08:38.133Z,4.90
2019-02-17T01:11:08.261Z,4.90
2019-02-17T01:13:39.246Z,5.00
2019-02-17T01:16:09.287Z,4.90
2019-02-17T01:18:39.277Z,4.80
2019-02-17T01:21:09.221Z,4.80
2019-02-17T01:23:41.135Z,4.80
2019-02-17T01:26:10.773Z,4.80
2019-02-17T01:28:40.729Z,4.80
2019-02-17T01:31:29.429Z,4.90
2019-02-17T01:34:00.778Z,4.80
2019-02-17T01:36:30.705Z,4.90
2019-02-17T01:39:00.542Z,4.80
2019-02-17T01:41:30.557Z,4.80
2019-02-17T01:44:00.337Z,4.80
2019-02-17T01:46:30.181Z,4.70
2019-02-17T01:48:59.987Z,4.70
2019-02-17T01:51:29.853Z,4.70
2019-02-17T01:53:59.677Z,4.70
2019-02-17T01:56:29.590Z,4.70
2019-02-17T01:58:59.528Z,4.80
2019-02-17T02:01:29.339Z,4.80
2019-02-17T02:03:59.178Z,4.80
2019-02-17T02:06:28.951Z,4.80
2019-02-17T02:08:58.789Z,4.90
2019-02-17T02:11:28.575Z,4.90
2019-02-17T02:13:58.650Z,4.90
2019-02-17T02:16:28.407Z,4.80
2019-02-17T02:18:58.221Z,4.80
2019-02-17T02:21:28.025Z,4.80
2019-02-17T02:23:58.097Z,4.80
2019-02-17T02:26:27.981Z,4.80
2019-02-17T02:28:59.664Z,4.80
2019-02-17T02:31:29.550Z,4.80
2019-02-17T02:33:59.435Z,4.80
2019-02-17T02:36:29.410Z,4.80
2019-02-17T02:38:59.168Z,4.70
2019-02-17T02:41:34.665Z,4.60
2019-02-17T02:44:00.649Z,4.60
2019-02-17T02:46:30.482Z,4.70
2019-02-17T02:49:00.523Z,4.80
2019-02-17T02:51:30.513Z,4.70
2019-02-17T02:54:00.658Z,4.70
2019-02-17T02:56:30.619Z,4.80
2019-02-17T02:59:00.650Z,4.80
2019-02-17T03:01:30.618Z,4.80
2019-02-17T03:04:00.563Z,4.90
2019-02-17T03:06:37.613Z,4.90
2019-02-17T03:09:08.090Z,4.80
2019-02-17T03:11:38.078Z,4.90
2019-02-17T03:14:08.021Z,4.90
2019-02-17T03:16:37.834Z,4.90
2019-02-17T03:19:07.920Z,4.80
2019-02-17T03:21:37.760Z,4.70
2019-02-17T03:24:07.544Z,4.70
2019-02-17T03:26:37.358Z,4.80
2019-02-17T03:29:07.280Z,4.80
2019-02-17T03:31:37.194Z,4.80
2019-02-17T03:34:07.012Z,4.80
2019-02-17T03:36:36.834Z,4.90
2019-02-17T03:39:07.584Z,5.00
2019-02-17T03:41:37.337Z,5.00
2019-02-17T03:44:07.289Z,5.00
2019-02-17T03:46:37.125Z,5.00
2019-02-17T03:49:07.010Z,5.10
2019-02-17T03:51:36.901Z,5.10
2019-02-17T03:54:06.730Z,5.10
2019-02-17T03:56:36.527Z,5.10
2019-02-17T03:59:06.449Z,5.10
2019-02-17T04:01:36.454Z,5.10
2019-02-17T04:04:06.310Z,5.10
2019-02-17T04:06:36.280Z,5.10
2019-02-17T04:09:08.234Z,5.10
2019-02-17T04:11:38.270Z,5.10
2019-02-17T04:14:08.480Z,5.10
2019-02-17T04:16:38.505Z,5.10
2019-02-17T04:19:08.625Z,5.10
2019-02-17T04:21:38.546Z,5.10
2019-02-17T04:24:08.545Z,5.10
2019-02-17T04:26:38.703Z,5.10
2019-02-17T04:29:10.326Z,5.10
2019-02-17T04:31:40.581Z,5.10
2019-02-17T04:34:10.453Z,5.20
2019-02-17T04:36:40.245Z,5.10
2019-02-17T04:39:10.197Z,5.10
2019-02-17T04:41:40.087Z,5.10
2019-02-17T04:44:10.083Z,5.10
2019-02-17T04:46:40.022Z,5.10
2019-02-17T04:49:09.841Z,5.00
2019-02-17T04:51:39.763Z,5.00
2019-02-17T04:54:09.581Z,5.00
2019-02-17T04:56:39.597Z,5.00
2019-02-17T04:59:09.384Z,5.00
2019-02-17T05:01:39.214Z,5.00
2019-02-17T05:04:09.006Z,5.00
2019-02-17T05:06:40.796Z,5.00
2019-02-17T05:09:10.368Z,5.00
2019-02-17T05:11:40.301Z,4.90
2019-02-17T05:14:10.198Z,4.90
2019-02-17T05:16:40.021Z,4.80
2019-02-17T05:19:10.134Z,4.60
2019-02-17T05:21:39.951Z,4.50
2019-02-17T05:24:09.852Z,4.50
2019-02-17T05:26:39.688Z,4.50
2019-02-17T05:29:09.474Z,4.40
2019-02-17T05:31:39.391Z,4.40
2019-02-17T05:34:09.305Z,4.50
2019-02-17T05:36:39.113Z,4.40
2019-02-17T05:39:09.054Z,4.30
2019-02-17T05:41:39.151Z,4.30
2019-02-17T05:44:09.069Z,4.30
2019-02-17T05:46:39.197Z,4.30
2019-02-17T05:49:09.213Z,4.30
2019-02-17T05:51:39.238Z,4.20
2019-02-17T05:54:09.220Z,4.10
2019-02-17T05:56:41.010Z,4.20
2019-02-17T05:59:10.878Z,4.20
2019-02-17T06:01:40.816Z,4.20
2019-02-17T06:04:30.590Z,4.10
2019-02-17T06:07:00.525Z,4.00
2019-02-17T06:09:30.324Z,4.10
2019-02-17T06:12:00.369Z,4.10
2019-02-17T06:14:30.445Z,4.00
2019-02-17T06:17:00.338Z,4.00
2019-02-17T06:19:30.293Z,3.90
2019-02-17T06:22:00.073Z,3.90
2019-02-17T06:24:30.025Z,3.90
2019-02-17T06:26:59.913Z,3.80
2019-02-17T06:29:29.729Z,3.80
2019-02-17T06:31:59.537Z,3.80
2019-02-17T06:34:29.454Z,3.70
2019-02-17T06:36:59.466Z,3.70
2019-02-17T06:39:29.396Z,3.60
2019-02-17T06:41:59.414Z,3.70
2019-02-17T06:44:29.338Z,3.70
2019-02-17T06:47:01.806Z,3.70
2019-02-17T06:49:31.695Z,3.70
2019-02-17T06:52:01.513Z,3.60
2019-02-17T06:54:31.425Z,3.60
2019-02-17T06:57:26.115Z,3.70
2019-02-17T07:00:11.185Z,3.60
2019-02-17T07:02:41.105Z,3.70
2019-02-17T07:05:31.999Z,3.80
2019-02-17T07:08:02.137Z,3.90
2019-02-17T07:10:32.460Z,4.00
2019-02-17T07:13:02.592Z,3.90
2019-02-17T07:15:32.717Z,3.90
2019-02-17T07:18:02.689Z,4.10
2019-02-17T07:20:32.737Z,4.20
2019-02-17T07:23:02.627Z,4.40
2019-02-17T07:25:32.665Z,4.30
2019-02-17T07:28:02.541Z,4.20
2019-02-17T07:30:32.493Z,4.10
2019-02-17T07:33:02.385Z,4.20
2019-02-17T07:35:32.333Z,4.40
2019-02-17T07:38:02.123Z,4.40
2019-02-17T07:40:32.125Z,4.60
2019-02-17T07:43:02.076Z,4.70
2019-02-17T07:45:32.152Z,4.80
2019-02-17T07:48:01.981Z,4.90
2019-02-17T07:50:31.780Z,5.10
2019-02-17T07:53:01.713Z,5.00
2019-02-17T07:55:31.483Z,5.10
2019-02-17T07:58:01.362Z,5.20
2019-02-17T08:00:31.409Z,5.20
2019-02-17T08:03:01.249Z,5.30
2019-02-17T08:05:31.061Z,5.40
2019-02-17T08:08:02.611Z,5.50
2019-02-17T08:10:32.429Z,5.50
2019-02-17T08:13:02.233Z,5.40
2019-02-17T08:15:32.189Z,5.10
2019-02-17T08:18:02.161Z,5.20
2019-02-17T08:20:33.724Z,5.40
2019-02-17T08:23:03.630Z,5.50
2019-02-17T08:25:33.673Z,5.60
2019-02-17T08:28:03.967Z,5.60
2019-02-17T08:30:35.316Z,5.50
2019-02-17T08:33:05.338Z,5.40
2019-02-17T08:35:36.671Z,5.30
2019-02-17T08:38:06.817Z,5.20
2019-02-17T08:40:36.800Z,5.20
2019-02-17T08:43:06.729Z,5.30
2019-02-17T08:45:36.846Z,5.40
2019-02-17T08:48:06.761Z,5.50
2019-02-17T08:50:36.665Z,5.60
2019-02-17T08:53:06.615Z,5.70
2019-02-17T08:55:36.424Z,5.80
2019-02-17T08:58:06.207Z,5.70
2019-02-17T09:00:36.135Z,5.60
2019-02-17T09:03:06.037Z,5.60
2019-02-17T09:05:43.941Z,5.40
2019-02-17T09:08:07.297Z,5.40
2019-02-17T09:10:37.212Z,5.50
2019-02-17T09:13:07.223Z,5.60
2019-02-17T09:15:37.300Z,5.70
2019-02-17T09:18:07.285Z,6.00
2019-02-17T09:20:37.159Z,6.10
2019-02-17T09:23:07.205Z,6.20
2019-02-17T09:25:36.991Z,6.30
2019-02-17T09:28:06.929Z,6.30
2019-02-17T09:30:36.833Z,6.20
2019-02-17T09:33:06.817Z,6.00
2019-02-17T09:35:36.652Z,5.80
2019-02-17T09:38:06.485Z,5.80
2019-02-17T09:40:36.379Z,5.80
2019-02-17T09:43:06.328Z,5.80
2019-02-17T09:45:36.309Z,5.70
2019-02-17T09:48:06.272Z,5.70
2019-02-17T09:50:36.312Z,5.80
2019-02-17T09:53:06.261Z,5.90
2019-02-17T09:55:36.373Z,5.80
2019-02-17T09:58:06.373Z,5.80
2019-02-17T10:00:36.322Z,5.90
2019-02-17T10:03:06.210Z,5.90
2019-02-17T10:05:36.277Z,6.00
2019-02-17T10:08:06.263Z,6.10
2019-02-17T10:10:36.063Z,6.10
2019-02-17T10:13:05.973Z,6.00
2019-02-17T10:15:35.890Z,6.10
2019-02-17T10:18:05.829Z,6.10
2019-02-17T10:20:35.792Z,6.10
2019-02-17T10:23:05.747Z,6.00
2019-02-17T10:25:35.720Z,6.00
2019-02-17T10:28:05.691Z,6.20
2019-02-17T10:30:35.462Z,6.30
2019-02-17T10:33:05.626Z,6.30
2019-02-17T10:35:35.633Z,6.40
2019-02-17T10:38:05.515Z,6.50
2019-02-17T10:40:35.333Z,6.50
2019-02-17T10:43:05.251Z,6.40
2019-02-17T10:45:35.157Z,6.30
2019-02-17T10:48:04.969Z,6.30
2019-02-17T10:50:34.993Z,6.30
2019-02-17T10:53:05.001Z,6.10
2019-02-17T10:55:34.918Z,6.00
2019-02-17T10:58:04.729Z,6.00
2019-02-17T11:00:34.729Z,5.90
2019-02-17T11:03:09.383Z,5.90
2019-02-17T11:05:39.202Z,5.90
2019-02-17T11:08:09.114Z,5.80
2019-02-17T11:10:39.005Z,5.70
2019-02-17T11:13:08.921Z,5.60
2019-02-17T11:15:39.137Z,5.70
2019-02-17T11:18:09.278Z,5.70
2019-02-17T11:20:39.069Z,5.70
2019-02-17T11:23:09.176Z,5.80
2019-02-17T11:25:39.203Z,5.70
2019-02-17T11:28:09.241Z,5.60
2019-02-17T11:30:39.045Z,5.50
2019-02-17T11:33:09.045Z,5.40
2019-02-17T11:35:38.973Z,5.30
2019-02-17T11:38:09.076Z,5.40
2019-02-17T11:40:39.027Z,5.60
2019-02-17T11:43:09.091Z,5.70
2019-02-17T11:45:38.949Z,5.80
2019-02-17T11:48:09.014Z,6.00
2019-02-17T11:50:38.952Z,6.00
2019-02-17T11:53:08.901Z,6.10
2019-02-17T11:55:38.887Z,6.00
2019-02-17T11:58:09.034Z,6.00
2019-02-17T12:00:39.010Z,5.90
2019-02-17T12:03:08.920Z,5.90
2019-02-17T12:05:38.932Z,5.80
2019-02-17T12:08:08.878Z,5.90
2019-02-17T12:10:38.953Z,5.90
2019-02-17T12:13:09.013Z,5.80
2019-02-17T12:15:38.985Z,5.80
2019-02-17T12:18:08.905Z,5.50
2019-02-17T12:20:53.993Z,5.40
2019-02-17T12:23:41.590Z,5.20
2019-02-17T12:26:15.856Z,5.20
2019-02-17T12:28:50.690Z,5.00
2019-02-17T12:31:24.617Z,5.00
2019-02-17T12:33:54.589Z,5.10
2019-02-17T12:36:24.629Z,5.20
2019-02-17T12:38:54.541Z,5.30
2019-02-17T12:41:24.521Z,5.40
2019-02-17T12:43:54.374Z,5.40
2019-02-17T12:46:24.354Z,5.20
2019-02-17T12:48:54.353Z,5.20
2019-02-17T12:51:24.284Z,5.30
2019-02-17T12:53:54.226Z,5.40
2019-02-17T12:56:24.097Z,5.50
2019-02-17T12:58:54.373Z,5.60
2019-02-17T13:01:24.254Z,5.60
2019-02-17T13:03:54.305Z,5.50
2019-02-17T13:06:26.555Z,5.60
2019-02-17T13:08:56.165Z,5.60
2019-02-17T13:11:26.079Z,5.70
2019-02-17T13:13:56.065Z,5.70
2019-02-17T13:16:25.921Z,5.40
2019-02-17T13:18:55.884Z,5.20
2019-02-17T13:21:25.732Z,5.00
2019-02-17T13:23:55.550Z,4.90
2019-02-17T13:26:25.557Z,5.00
2019-02-17T13:28:55.334Z,4.90
2019-02-17T13:31:25.294Z,4.80
2019-02-17T13:33:55.179Z,4.80
2019-02-17T13:36:25.116Z,4.70
2019-02-17T13:39:13.829Z,4.70
2019-02-17T13:41:43.893Z,4.60
2019-02-17T13:44:13.995Z,4.60
2019-02-17T13:46:44.009Z,4.50
2019-02-17T13:49:14.917Z,4.50
2019-02-17T13:51:44.848Z,4.40
2019-02-17T13:54:14.843Z,4.50
2019-02-17T13:56:44.777Z,4.50
2019-02-17T13:59:14.601Z,4.40
2019-02-17T14:01:44.729Z,4.40
2019-02-17T14:04:14.724Z,4.50
2019-02-17T14:06:44.861Z,4.60
2019-02-17T14:09:14.746Z,4.70
2019-02-17T14:11:44.797Z,4.70
2019-02-17T14:14:14.781Z,4.80
2019-02-17T14:16:44.822Z,4.90
2019-02-17T14:19:14.594Z,4.90
2019-02-17T14:21:44.559Z,4.90
2019-02-17T14:24:14.358Z,4.80
2019-02-17T14:26:44.252Z,4.80
2019-02-17T14:29:14.197Z,4.80
2019-02-17T14:31:44.361Z,4.80
2019-02-17T14:34:14.313Z,4.80
2019-02-17T14:36:44.222Z,4.90
2019-02-17T14:39:14.038Z,5.00
2019-02-17T14:41:43.934Z,5.10
2019-02-17T14:44:14.085Z,5.10
2019-02-17T14:46:44.082Z,5.20
2019-02-17T14:49:14.069Z,5.20
2019-02-17T14:51:43.927Z,5.20
2019-02-17T14:54:13.807Z,5.30
2019-02-17T14:56:43.753Z,5.30
2019-02-17T14:59:13.780Z,5.30
2019-02-17T15:01:43.574Z,5.30
2019-02-17T15:04:13.469Z,5.30
2019-02-17T15:06:43.505Z,5.30
2019-02-17T15:09:13.399Z,5.20
2019-02-17T15:11:43.249Z,5.00
2019-02-17T15:14:13.253Z,4.90
2019-02-17T15:16:43.250Z,4.90
2019-02-17T15:19:14.963Z,4.80
2019-02-17T15:21:44.707Z,4.80
2019-02-17T15:24:14.529Z,4.70
2019-02-17T15:26:44.657Z,4.50
2019-02-17T15:29:14.532Z,4.30
2019-02-17T15:31:44.461Z,4.20
2019-02-17T15:34:18.809Z,4.10
2019-02-17T15:36:46.068Z,4.00
2019-02-17T15:39:16.025Z,4.00
2019-02-17T15:41:45.885Z,3.90
2019-02-17T15:44:17.728Z,4.00
2019-02-17T15:46:47.637Z,4.00
2019-02-17T15:49:17.549Z,4.00
2019-02-17T15:51:47.366Z,3.90
2019-02-17T15:54:17.274Z,3.90
2019-02-17T15:56:47.197Z,3.90
2019-02-17T15:59:17.905Z,4.00
2019-02-17T16:01:48.097Z,4.00
2019-02-17T16:04:17.838Z,4.10
2019-02-17T16:06:48.024Z,4.10
2019-02-17T16:09:18.001Z,4.20
2019-02-17T16:11:47.991Z,4.20
2019-02-17T16:14:17.926Z,4.10
2019-02-17T16:16:47.982Z,4.00
2019-02-17T16:19:17.746Z,4.00
2019-02-17T16:21:47.653Z,4.00
2019-02-17T16:24:17.477Z,3.90
2019-02-17T16:26:47.377Z,3.90
2019-02-17T16:29:17.326Z,3.90
2019-02-17T16:31:47.217Z,3.80
2019-02-17T16:34:17.022Z,3.70
2019-02-17T16:36:46.843Z,3.70
2019-02-17T16:39:16.822Z,3.60
2019-02-17T16:41:46.781Z,3.50
2019-02-17T16:44:16.981Z,3.50
2019-02-17T16:46:47.041Z,3.60
2019-02-17T16:49:17.226Z,3.60
2019-02-17T16:51:47.307Z,3.60
2019-02-17T16:54:17.339Z,3.60
2019-02-17T16:56:47.412Z,3.70
2019-02-17T16:59:17.385Z,3.60
2019-02-17T17:01:47.527Z,3.60
2019-02-17T17:04:18.492Z,3.70
2019-02-17T17:06:48.567Z,3.70
2019-02-17T17:09:18.473Z,3.60
2019-02-17T17:11:48.392Z,3.50
2019-02-17T17:14:18.328Z,3.50
2019-02-17T17:16:48.113Z,3.50
2019-02-17T17:19:18.213Z,3.60
2019-02-17T17:21:48.141Z,3.60
2019-02-17T17:24:18.055Z,3.60
2019-02-17T17:26:48.020Z,3.60
2019-02-17T17:29:17.873Z,3.60
2019-02-17T17:31:48.002Z,3.60
2019-02-17T17:34:17.823Z,3.70
2019-02-17T17:36:48.084Z,3.60
2019-02-17T17:39:17.851Z,3.70
2019-02-17T17:41:47.981Z,3.80
2019-02-17T17:44:17.973Z,3.80
2019-02-17T17:46:48.045Z,3.90
2019-02-17T17:49:19.495Z,3.80
2019-02-17T17:51:49.767Z,3.80
2019-02-17T17:54:19.807Z,3.80
2019-02-17T17:56:49.596Z,3.80
2019-02-17T17:59:19.535Z,3.80
2019-02-17T18:01:49.437Z,3.70
2019-02-17T18:04:19.384Z,3.80
2019-02-17T18:06:49.557Z,3.80
2019-02-17T18:09:19.527Z,3.80
2019-02-17T18:11:49.625Z,3.80
2019-02-17T18:14:19.713Z,3.80
2019-02-17T18:16:49.739Z,3.80
2019-02-17T18:19:19.637Z,3.80
2019-02-17T18:21:49.460Z,3.80
2019-02-17T18:24:19.361Z,3.70
2019-02-17T18:26:49.281Z,3.70
2019-02-17T18:29:19.071Z,3.70
2019-02-17T18:31:49.023Z,3.70
2019-02-17T18:34:20.946Z,3.70
2019-02-17T18:36:50.796Z,3.70
2019-02-17T18:39:20.690Z,3.60
2019-02-17T18:41:50.505Z,3.60
2019-02-17T18:44:20.341Z,3.60
2019-02-17T18:46:50.222Z,3.60
2019-02-17T18:49:20.239Z,3.60
2019-02-17T18:51:50.241Z,3.60
2019-02-17T18:54:20.188Z,3.70
2019-02-17T18:56:50.070Z,3.60
2019-02-17T18:59:20.013Z,3.60
2019-02-17T19:01:50.013Z,3.50
2019-02-17T19:04:20.012Z,3.40
2019-02-17T19:06:50.044Z,3.40
2019-02-17T19:09:19.959Z,3.40
2019-02-17T19:11:49.784Z,3.40
2019-02-17T19:14:19.682Z,3.40
2019-02-17T19:16:50.754Z,3.40
2019-02-17T19:19:20.627Z,3.40
2019-02-17T19:21:50.684Z,3.40
2019-02-17T19:24:20.745Z,3.40
2019-02-17T19:26:50.992Z,3.50
2019-02-17T19:29:21.055Z,3.40
2019-02-17T19:31:51.012Z,3.40
2019-02-17T19:34:21.179Z,3.30
2019-02-17T19:36:51.381Z,3.30
2019-02-17T19:39:21.403Z,3.30
2019-02-17T19:41:51.411Z,3.30
2019-02-17T19:44:21.529Z,3.20
2019-02-17T19:46:51.653Z,3.30
2019-02-17T19:49:21.669Z,3.20
2019-02-17T19:51:51.756Z,3.30
2019-02-17T19:54:21.922Z,3.30
2019-02-17T19:56:52.109Z,3.20
2019-02-17T19:59:22.135Z,3.20
2019-02-17T20:01:52.163Z,3.20
2019-02-17T20:04:31.349Z,3.20
2019-02-17T20:07:01.528Z,3.30
2019-02-17T20:09:31.611Z,3.30
2019-02-17T20:12:01.666Z,3.30
2019-02-17T20:14:31.851Z,3.30
2019-02-17T20:17:02.034Z,3.40
2019-02-17T20:19:32.101Z,3.30
2019-02-17T20:22:02.014Z,3.30
2019-02-17T20:24:32.041Z,3.30
2019-02-17T20:27:02.110Z,3.30
2019-02-17T20:29:32.198Z,3.30
2019-02-17T20:32:02.098Z,3.40
2019-02-17T20:34:31.999Z,3.30
2019-02-17T20:37:02.887Z,3.30
2019-02-17T20:39:32.989Z,3.30
2019-02-17T20:42:02.946Z,3.30
2019-02-17T20:44:32.922Z,3.30
2019-02-17T20:47:02.910Z,3.20
2019-02-17T20:49:33.025Z,3.20
2019-02-17T20:52:03.144Z,3.20
2019-02-17T20:54:33.241Z,3.20
2019-02-17T20:57:03.674Z,3.20
2019-02-17T20:59:33.725Z,3.30
2019-02-17T21:02:04.017Z,3.20
2019-02-17T21:04:33.909Z,3.30
2019-02-17T21:07:03.957Z,3.40
2019-02-17T21:09:34.020Z,3.40
2019-02-17T21:12:04.054Z,3.50
2019-02-17T21:14:34.097Z,3.40
2019-02-17T21:17:04.077Z,3.40
2019-02-17T21:19:34.129Z,3.50
2019-02-17T21:22:04.037Z,3.50
2019-02-17T21:24:34.057Z,3.50
2019-02-17T21:27:04.040Z,3.50
2019-02-17T21:29:34.001Z,3.50
2019-02-17T21:32:03.970Z,3.50
2019-02-17T21:34:34.021Z,3.40
2019-02-17T21:37:04.021Z,3.50
2019-02-17T21:39:33.943Z,3.40
2019-02-17T21:42:03.901Z,3.40
2019-02-17T21:44:33.957Z,3.30
2019-02-17T21:47:05.736Z,3.20
2019-02-17T21:49:35.717Z,3.30
2019-02-17T21:52:05.676Z,3.30
2019-02-17T21:54:35.449Z,3.30
2019-02-17T21:57:05.597Z,3.30
2019-02-17T21:59:35.465Z,3.30
2019-02-17T22:02:05.429Z,3.30
2019-02-17T22:04:35.965Z,3.30
2019-02-17T22:07:05.845Z,3.20
2019-02-17T22:09:35.685Z,3.20
2019-02-17T22:12:05.681Z,3.20
2019-02-17T22:14:35.813Z,3.10
2019-02-17T22:17:05.806Z,3.20
2019-02-17T22:19:35.873Z,3.10
2019-02-17T22:22:05.926Z,3.20
2019-02-17T22:24:35.999Z,3.10
2019-02-17T22:27:06.161Z,3.10
2019-02-17T22:29:36.197Z,3.10
2019-02-17T22:32:06.153Z,3.10
2019-02-17T22:34:36.064Z,3.10
2019-02-17T22:37:05.948Z,3.10
2019-02-17T22:39:35.847Z,3.10
2019-02-17T22:42:05.781Z,3.10
2019-02-17T22:44:35.775Z,3.10
2019-02-17T22:47:05.726Z,3.10
2019-02-17T22:49:35.625Z,3.10
2019-02-17T22:52:05.729Z,3.10
2019-02-17T22:54:38.789Z,3.10
2019-02-17T22:57:08.927Z,3.10
2019-02-17T22:59:38.949Z,3.10
2019-02-17T23:02:08.959Z,3.10
2019-02-17T23:04:38.850Z,3.10
2019-02-17T23:07:09.194Z,3.10
2019-02-17T23:09:39.129Z,3.10
2019-02-17T23:12:09.023Z,3.10
2019-02-17T23:14:40.397Z,3.10
2019-02-17T23:17:10.277Z,3.10
2019-02-17T23:19:40.190Z,3.10
2019-02-17T23:22:10.332Z,3.10
2019-02-17T23:24:40.461Z,3.10
2019-02-17T23:27:10.365Z,3.10
2019-02-17T23:32:25.149Z,3.00
2019-02-17T23:34:56.146Z,3.10
2019-02-17T23:37:26.209Z,3.10
2019-02-17T23:39:56.185Z,3.10
2019-02-17T23:42:26.411Z,3.10
2019-02-17T23:44:56.439Z,3.10
2019-02-17T23:47:26.453Z,3.10
2019-02-17T23:49:56.393Z,3.10
2019-02-17T23:52:26.469Z,3.10
2019-02-17T23:54:56.521Z,3.20
2019-02-17T23:57:26.618Z,3.20
2019-02-17T23:59:56.550Z,3.20
